Cedar Rapids, IA

7:55 AM CDT on August 29, 2016 (GMT -0500)
SE Side-Grant Wood | | Change Station

Elev 820 ft 41.98 °N, 91.63 °W | Updated 11 minutes ago

Clear
Clear
69.3 °F
Feels Like 69.3 °F
N
1.7
Wind Variable Wind from ENE

Today
High -- | Low -- °F
--% Chance of Precip.
Yesterday
High -- | Low -- °F
Precip. -- in
Pressure 30.19 in
Visibility 5.0 miles
Clouds Clear
Dew Point 68 °F
Humidity 96%
Rainfall 0.00 in
Snow Depth Not available.
6:29 AM 7:44 PM
Waning Crescent, 9% visible
METAR KCID 291252Z 10005KT 5SM BR CLR 21/21 A3020 RMK AO2 SLP223 T02060206
Pressure 30.19 in
Visibility 5.0 miles
Clouds Clear
Dew Point 68 °F
Humidity 96%
Rainfall 0.00 in
Snow Depth Not available.
6:29 AM 7:44 PM
Waning Crescent, 9% visible
METAR KCID 291252Z 10005KT 5SM BR CLR 21/21 A3020 RMK AO2 SLP223 T02060206

10-Day Weather Forecast

Almanac

Astronomy

Aug. 29, 2016 Rise Set
Actual Time
Civil Twilight
Nautical Twilight
Astronomical Twilight
Moon
Length of Visible Light
Length of Day
Tomorrow will be .
, % of the Moon is Illuminated

Today's Extremes

State Highs State Lows

Community

WunderPhotos

Upload Photos

1,935,810 photos uploaded!

WunderBlog® & News

Nearby

Air Quality

  Air Quality AQ Index Pollutant
Not available.

Snow Depth

Station Depth Elevation

Earthquake Activity

City Distance Mag. Time & Date
Minimum magnitude displayed is 2.5.

Coastal Water Temperatures

Place Temperature

Stations

Nearby Weather Stations

Station Location Temp. Windchill Dew Point Humidity Wind Precip. Elev Updated Type
                   

Watches & Warnings

There are currently no watches in effect.